Time;durP1;ratioP1;P1;durP2;ratioP2;P2;SDS_P1;SDS_P2;PMS_P1;PMS_P2;Temp;Humidity;BMP_temperature;BMP_pressure;BME280_temperature;BME280_humidity;BME280_pressure;Samples;Min_cycle;Max_cycle;Signal;HPM_P1;HPM_P2
2022/09/29 00:01:23;;;;;;;8.52;4.15;;;;;;;17.54;60.28;94031.44;4965865;28;20239;-68
2022/09/29 00:03:48;;;;;;;5.22;3.58;;;;;;;17.58;60.36;94034.44;4966804;28;20192;-68
2022/09/29 00:06:17;;;;;;;8.88;3.70;;;;;;;17.58;60.24;94051.19;4965196;28;20188;-68
2022/09/29 00:08:44;;;;;;;7.90;3.85;;;;;;;17.58;60.40;94056.53;4967197;28;20188;-67
2022/09/29 00:11:12;;;;;;;5.75;3.90;;;;;;;17.85;59.24;94045.66;4963765;28;20238;-67
2022/09/29 00:13:38;;;;;;;7.00;3.75;;;;;;;17.61;59.77;94026.03;4961276;28;20194;-67
2022/09/29 00:16:04;;;;;;;6.05;3.60;;;;;;;17.44;60.40;94023.13;4963293;28;20209;-67
2022/09/29 00:18:31;;;;;;;7.32;3.65;;;;;;;17.61;60.76;94037.50;4965529;28;20192;-68
2022/09/29 00:21:01;;;;;;;5.35;3.38;;;;;;;17.58;60.64;94029.94;4963740;28;20272;-69
2022/09/29 00:23:28;;;;;;;6.78;3.90;;;;;;;17.42;61.36;94051.75;4958865;28;20211;-69
2022/09/29 00:25:59;;;;;;;8.25;3.67;;;;;;;17.67;60.10;94051.75;4963803;28;20196;-69
2022/09/29 00:28:52;;;;;;;7.10;4.03;;;;;;;17.39;61.07;94047.69;4965827;28;20195;-70
2022/09/29 00:31:19;;;;;;;7.53;3.45;;;;;;;17.49;60.31;94031.25;4957801;28;20192;-68
2022/09/29 00:33:44;;;;;;;5.38;3.30;;;;;;;17.49;60.22;94017.97;4984152;28;20207;-70
2022/09/29 00:36:15;;;;;;;6.95;3.97;;;;;;;17.42;60.68;94018.03;4964559;28;20227;-69
2022/09/29 00:38:42;;;;;;;4.07;3.42;;;;;;;17.48;60.74;94034.13;4979956;28;20295;-69
2022/09/29 00:41:16;;;;;;;4.28;3.03;;;;;;;17.48;60.04;94034.97;4964669;28;20191;-69
2022/09/29 00:43:53;;;;;;;5.57;3.10;;;;;;;17.46;59.61;94028.25;4967212;28;20235;-69
2022/09/29 00:46:46;;;;;;;7.68;3.03;;;;;;;17.32;59.90;94038.16;4961000;28;20183;-70
2022/09/29 00:49:30;;;;;;;4.88;3.00;;;;;;;17.39;60.33;94033.59;4964702;28;20267;-70
2022/09/29 00:51:58;;;;;;;6.82;3.03;;;;;;;17.15;60.97;94033.38;4969212;28;20263;-69
2022/09/29 00:54:28;;;;;;;5.85;3.15;;;;;;;17.23;60.98;94034.94;4974733;28;20214;-69
2022/09/29 00:56:55;;;;;;;3.67;2.92;;;;;;;17.24;61.16;94043.72;4967745;28;20189;-69
2022/09/29 00:59:31;;;;;;;6.20;3.15;;;;;;;17.29;60.36;94034.06;4970929;28;20188;-69
2022/09/29 01:01:57;;;;;;;5.88;3.15;;;;;;;17.22;60.39;94027.22;4966289;28;20200;-69
2022/09/29 01:04:23;;;;;;;9.00;3.45;;;;;;;17.07;61.29;94023.00;4967465;28;20629;-69
2022/09/29 01:06:53;;;;;;;7.82;3.65;;;;;;;17.02;61.96;94032.66;4970442;28;20189;-69
2022/09/29 01:09:22;;;;;;;7.65;3.55;;;;;;;16.96;62.33;94037.81;4968558;28;20271;-69
2022/09/29 01:11:51;;;;;;;4.60;3.33;;;;;;;17.15;60.64;94025.41;4969257;28;20232;-69
2022/09/29 01:14:18;;;;;;;4.22;2.97;;;;;;;16.90;61.04;94027.25;4973452;28;20205;-69
2022/09/29 01:16:44;;;;;;;6.78;3.53;;;;;;;17.02;60.89;94025.50;4965010;28;20184;-69
2022/09/29 01:19:21;;;;;;;6.82;3.35;;;;;;;17.05;60.91;94029.56;4968477;28;20297;-68
2022/09/29 01:22:01;;;;;;;5.50;3.40;;;;;;;17.01;60.96;94029.19;4986032;28;20247;-70
2022/09/29 01:25:11;;;;;;;6.47;3.53;;;;;;;16.86;62.04;94032.16;4968712;28;20282;-70
2022/09/29 01:28:17;;;;;;;6.18;2.95;;;;;;;16.93;62.05;94027.63;4862468;29;20203;-70
2022/09/29 01:30:48;;;;;;;4.95;2.95;;;;;;;16.81;62.54;94023.19;4840723;29;20212;-69
2022/09/29 01:33:44;;;;;;;4.45;3.00;;;;;;;16.50;64.02;94030.09;4842231;29;20248;-68
2022/09/29 01:36:47;;;;;;;5.10;3.40;;;;;;;16.41;64.58;94026.88;4828235;29;20195;-68
2022/09/29 01:39:23;;;;;;;7.22;3.70;;;;;;;16.35;64.69;94029.56;4784868;29;20230;-68
2022/09/29 01:42:14;;;;;;;10.02;3.55;;;;;;;16.52;64.02;94036.81;4790501;29;20276;-68
2022/09/29 01:44:58;;;;;;;6.50;3.58;;;;;;;16.51;63.95;94048.44;4780550;29;20323;-69
2022/09/29 01:47:38;;;;;;;11.13;4.38;;;;;;;16.46;63.83;94044.81;4796797;29;20186;-69
2022/09/29 01:50:11;;;;;;;8.23;3.70;;;;;;;16.47;64.53;94054.41;4783351;29;20213;-69
2022/09/29 01:52:43;;;;;;;5.00;3.47;;;;;;;16.42;64.40;94052.38;4769539;29;20186;-68
2022/09/29 01:55:14;;;;;;;5.82;3.30;;;;;;;16.38;64.90;94050.34;4778804;29;20708;-70
2022/09/29 01:57:53;;;;;;;5.18;3.22;;;;;;;16.20;65.33;94054.53;4788486;29;20243;-70
2022/09/29 02:00:22;;;;;;;4.88;3.17;;;;;;;16.21;65.70;94055.31;4776369;29;20201;-68
2022/09/29 02:03:10;;;;;;;5.95;3.47;;;;;;;16.26;65.43;94056.31;4811563;29;20237;-67
2022/09/29 02:05:51;;;;;;;6.40;3.75;;;;;;;16.16;65.62;94052.50;4891247;29;20202;-67
2022/09/29 02:08:52;;;;;;;4.43;3.30;;;;;;;16.29;64.87;94055.91;4892273;29;20211;-67
2022/09/29 02:11:17;;;;;;;6.22;3.72;;;;;;;15.85;67.21;94052.19;4879935;29;20310;-67
2022/09/29 02:14:02;;;;;;;5.40;3.30;;;;;;;16.00;66.79;94056.41;4876815;29;20287;-66
2022/09/29 02:16:31;;;;;;;10.25;3.67;;;;;;;16.06;66.54;94058.22;4970586;28;20191;-66
2022/09/29 02:19:18;;;;;;;5.78;3.67;;;;;;;16.08;66.13;94056.19;4966432;28;20200;-67
2022/09/29 02:21:44;;;;;;;5.13;3.38;;;;;;;16.12;66.49;94056.56;4964778;28;20188;-67
2022/09/29 02:24:12;;;;;;;7.15;4.00;;;;;;;16.08;66.29;94049.03;4970798;28;20199;-67
2022/09/29 02:26:40;;;;;;;6.32;3.65;;;;;;;16.13;66.44;94066.16;4970248;28;20271;-67
2022/09/29 02:29:07;;;;;;;5.22;3.25;;;;;;;16.15;66.44;94056.97;4968648;28;20232;-67
2022/09/29 02:31:34;;;;;;;5.25;3.10;;;;;;;16.23;66.26;94058.59;4964514;28;20184;-67
2022/09/29 02:34:02;;;;;;;10.80;4.10;;;;;;;16.28;65.82;94072.03;4966397;28;20188;-67
2022/09/29 02:36:39;;;;;;;6.88;3.90;;;;;;;16.35;65.31;94077.31;4966530;28;20181;-67
2022/09/29 02:39:32;;;;;;;8.20;4.30;;;;;;;16.25;64.92;94078.56;4965979;28;20219;-67
2022/09/29 02:42:16;;;;;;;7.45;4.07;;;;;;;16.31;64.58;94066.31;4966541;28;20192;-67
2022/09/29 02:45:00;;;;;;;6.47;3.65;;;;;;;16.27;64.72;94065.91;4960791;28;20240;-67
2022/09/29 02:47:50;;;;;;;6.45;3.67;;;;;;;16.24;65.29;94060.22;4976306;28;20198;-66
2022/09/29 02:50:33;;;;;;;9.20;3.60;;;;;;;16.22;65.46;94064.91;4965878;28;20188;-67
2022/09/29 02:53:04;;;;;;;6.57;3.72;;;;;;;16.18;65.67;94061.06;4969422;28;20183;-67
2022/09/29 02:55:56;;;;;;;5.25;3.55;;;;;;;16.18;65.74;94076.97;4967087;28;20185;-67
2022/09/29 02:58:40;;;;;;;6.95;3.55;;;;;;;15.75;66.92;94080.13;4974967;28;20199;-67
2022/09/29 03:01:06;;;;;;;10.80;3.75;;;;;;;16.06;66.11;94066.19;4969005;28;20181;-67
2022/09/29 03:03:32;;;;;;;4.57;3.60;;;;;;;16.13;65.43;94061.66;4950997;28;20214;-67
2022/09/29 03:05:57;;;;;;;5.18;3.53;;;;;;;16.03;65.71;94058.63;4972986;28;20184;-67
2022/09/29 03:08:23;;;;;;;5.90;3.40;;;;;;;15.96;65.72;94050.72;4965541;28;20211;-67
2022/09/29 03:10:48;;;;;;;7.85;4.00;;;;;;;16.03;65.51;94029.47;4965587;28;20256;-67
2022/09/29 03:13:14;;;;;;;5.70;3.20;;;;;;;15.95;65.44;94014.59;4967381;28;20264;-66
2022/09/29 03:15:39;;;;;;;4.05;2.90;;;;;;;15.88;65.00;94014.63;4973247;28;20204;-66
2022/09/29 03:18:06;;;;;;;5.88;3.15;;;;;;;15.74;65.25;94013.03;4968517;28;20183;-67
2022/09/29 03:20:31;;;;;;;5.72;2.58;;;;;;;15.78;65.07;94018.75;4968822;28;20263;-66
2022/09/29 03:22:57;;;;;;;7.55;3.33;;;;;;;15.91;64.69;94029.31;4969646;28;20205;-66
2022/09/29 03:25:23;;;;;;;5.55;3.00;;;;;;;15.99;64.15;94052.13;4962818;28;20184;-66
2022/09/29 03:27:49;;;;;;;6.15;2.85;;;;;;;16.13;63.68;94066.16;4970646;28;20200;-67
2022/09/29 03:30:16;;;;;;;8.23;3.55;;;;;;;16.02;64.10;94063.13;4967587;28;20192;-67
2022/09/29 03:32:42;;;;;;;6.50;3.08;;;;;;;15.95;64.02;94049.06;4982012;28;20187;-67
2022/09/29 03:35:09;;;;;;;9.60;3.70;;;;;;;15.98;63.88;94056.59;4972036;28;20188;-67
2022/09/29 03:37:34;;;;;;;7.05;3.03;;;;;;;16.09;63.55;94060.44;4975374;28;20189;-67
2022/09/29 03:40:01;;;;;;;7.72;3.72;;;;;;;16.08;63.59;94064.13;4967786;28;20279;-66
2022/09/29 03:42:27;;;;;;;8.07;3.50;;;;;;;15.96;63.83;94049.88;4972897;28;20211;-68
2022/09/29 03:44:53;;;;;;;6.30;3.00;;;;;;;15.97;64.05;94057.63;4978844;28;20238;-67
2022/09/29 03:47:19;;;;;;;6.13;3.75;;;;;;;15.75;65.14;94074.84;4975574;28;20184;-67
2022/09/29 03:49:44;;;;;;;8.25;3.78;;;;;;;15.78;65.60;94083.16;4985059;28;20197;-67
2022/09/29 03:52:10;;;;;;;5.22;3.65;;;;;;;15.84;65.20;94084.19;4966437;28;20183;-68
2022/09/29 03:54:36;;;;;;;6.88;4.15;;;;;;;15.82;65.52;94078.25;4976972;28;20195;-67
2022/09/29 03:57:01;;;;;;;9.90;3.38;;;;;;;15.66;65.95;94074.19;4974624;28;20194;-68
2022/09/29 03:59:26;;;;;;;9.90;4.97;;;;;;;15.36;67.29;94077.25;4969756;28;20200;-68
2022/09/29 04:01:52;;;;;;;8.68;3.70;;;;;;;15.58;66.56;94072.59;4987635;28;20203;-67
2022/09/29 04:04:17;;;;;;;4.30;3.50;;;;;;;15.47;66.64;94081.13;4966589;28;20184;-67
2022/09/29 04:06:43;;;;;;;6.35;3.58;;;;;;;15.33;67.80;94074.22;4975611;28;20184;-67
2022/09/29 04:09:08;;;;;;;8.90;4.13;;;;;;;15.31;68.15;94061.16;4987476;28;20573;-68
2022/09/29 04:11:34;;;;;;;5.57;3.65;;;;;;;15.33;68.14;94072.38;4972588;28;20176;-68
2022/09/29 04:13:59;;;;;;;8.43;4.20;;;;;;;15.53;67.41;94090.09;4975728;28;20214;-68
2022/09/29 04:16:25;;;;;;;9.10;5.18;;;;;;;15.56;67.31;94081.75;4974991;28;20198;-68
2022/09/29 04:18:50;;;;;;;8.30;4.82;;;;;;;15.42;67.53;94076.47;4975593;28;20295;-68
2022/09/29 04:21:16;;;;;;;8.63;4.55;;;;;;;15.16;68.67;94087.03;4988801;28;20190;-68
2022/09/29 04:23:41;;;;;;;6.07;4.28;;;;;;;15.25;68.66;94093.75;4973629;28;20291;-68
2022/09/29 04:26:07;;;;;;;6.18;4.88;;;;;;;15.27;68.53;94067.91;4966444;28;20167;-68
2022/09/29 04:28:34;;;;;;;6.20;4.70;;;;;;;15.33;68.22;94051.19;4969916;28;20184;-68
2022/09/29 04:30:59;;;;;;;8.32;4.70;;;;;;;15.44;67.86;94069.09;4984396;28;20216;-68
2022/09/29 04:33:25;;;;;;;9.15;4.40;;;;;;;15.47;67.46;94080.31;4986613;28;20184;-68
2022/09/29 04:35:51;;;;;;;8.02;4.13;;;;;;;15.39;67.54;94068.91;4971920;28;20187;-69
2022/09/29 04:38:16;;;;;;;14.70;5.50;;;;;;;15.35;67.53;94077.47;4985634;28;20180;-69
2022/09/29 04:40:42;;;;;;;12.00;5.32;;;;;;;15.40;67.58;94081.13;4972484;28;20218;-68
2022/09/29 04:43:07;;;;;;;10.07;4.43;;;;;;;15.46;67.42;94074.22;4973725;28;20218;-68
2022/09/29 04:45:33;;;;;;;8.15;4.00;;;;;;;15.43;67.58;94069.31;4972782;28;20289;-68
2022/09/29 04:47:58;;;;;;;11.23;4.93;;;;;;;15.50;67.55;94071.94;4974882;28;20187;-67
2022/09/29 04:50:24;;;;;;;12.60;4.85;;;;;;;15.44;67.73;94074.41;4976039;28;20188;-65
2022/09/29 04:52:49;;;;;;;13.48;5.53;;;;;;;15.43;67.70;94087.88;4966717;28;20210;-66
2022/09/29 04:55:15;;;;;;;9.25;5.07;;;;;;;15.35;68.02;94090.72;4968988;28;20185;-65
2022/09/29 04:57:43;;;;;;;10.45;5.55;;;;;;;15.32;67.72;94084.00;4988224;28;20188;-66
2022/09/29 05:00:10;;;;;;;10.07;5.10;;;;;;;15.38;67.06;94071.78;4964625;28;20271;-67
2022/09/29 05:02:35;;;;;;;9.77;4.93;;;;;;;15.49;66.45;94076.44;4971145;28;20634;-67
2022/09/29 05:05:01;;;;;;;11.30;5.10;;;;;;;15.49;66.58;94071.16;4968588;28;20338;-67
2022/09/29 05:07:26;;;;;;;11.00;5.75;;;;;;;15.54;66.50;94067.88;4972576;28;20210;-67
2022/09/29 05:09:52;;;;;;;8.23;4.97;;;;;;;15.54;66.85;94065.25;4971413;28;20183;-67
2022/09/29 05:12:17;;;;;;;10.07;4.55;;;;;;;15.57;66.53;94062.19;4973903;28;20176;-66
2022/09/29 05:14:43;;;;;;;8.93;5.43;;;;;;;15.62;66.30;94057.88;4967890;28;20204;-66
2022/09/29 05:17:08;;;;;;;11.73;4.95;;;;;;;15.68;65.81;94063.38;4972447;28;20192;-67
2022/09/29 05:19:34;;;;;;;10.55;5.95;;;;;;;15.79;65.41;94071.53;4972637;28;20185;-67
2022/09/29 05:22:00;;;;;;;11.60;4.93;;;;;;;15.89;65.42;94071.13;4971462;28;20303;-66
2022/09/29 05:24:26;;;;;;;11.00;5.60;;;;;;;15.88;66.24;94046.47;4952824;28;20191;-67
2022/09/29 05:26:51;;;;;;;11.48;5.40;;;;;;;15.97;65.77;94051.53;4974137;28;20180;-66
2022/09/29 05:29:16;;;;;;;12.80;5.75;;;;;;;16.08;65.15;94059.63;4966769;28;20194;-66
2022/09/29 05:31:42;;;;;;;15.90;6.53;;;;;;;16.07;65.30;94057.22;4971303;28;20183;-68
2022/09/29 05:34:08;;;;;;;15.90;6.22;;;;;;;16.20;64.67;94081.03;4989421;28;20183;-67
2022/09/29 05:36:33;;;;;;;11.75;5.55;;;;;;;16.25;64.47;94056.53;4967826;28;20222;-66
2022/09/29 05:38:58;;;;;;;13.77;5.03;;;;;;;16.00;64.46;94059.06;4971799;28;20195;-66
2022/09/29 05:41:24;;;;;;;6.10;4.72;;;;;;;16.10;64.54;94054.94;4987874;28;20188;-66
2022/09/29 05:43:52;;;;;;;10.55;4.40;;;;;;;16.28;63.59;94062.25;4972650;28;20250;-65
2022/09/29 05:46:18;;;;;;;11.25;5.20;;;;;;;16.43;62.71;94088.50;4966098;28;20188;-67
2022/09/29 05:48:49;;;;;;;8.70;4.22;;;;;;;16.49;63.34;94078.88;4987364;28;20184;-66
2022/09/29 05:51:19;;;;;;;10.40;5.40;;;;;;;16.54;63.43;94094.97;4974125;28;20219;-65
2022/09/29 05:53:44;;;;;;;9.38;4.70;;;;;;;16.66;62.99;94100.44;4968614;28;20227;-67
2022/09/29 05:56:17;;;;;;;8.48;5.15;;;;;;;16.72;62.65;94105.72;4974975;28;20262;-66
2022/09/29 05:58:43;;;;;;;5.95;3.55;;;;;;;16.81;60.96;94100.19;4975794;28;20278;-66
2022/09/29 06:01:11;;;;;;;7.10;3.70;;;;;;;16.83;60.29;94087.53;4974470;28;20283;-66
2022/09/29 06:03:38;;;;;;;10.02;3.53;;;;;;;16.78;60.92;94093.47;4980150;28;20290;-66
2022/09/29 06:06:07;;;;;;;9.27;4.50;;;;;;;16.85;61.18;94088.13;4985970;28;20227;-67
2022/09/29 06:08:33;;;;;;;7.80;3.90;;;;;;;16.91;60.58;94100.56;4970113;28;20274;-66
2022/09/29 06:11:11;;;;;;;8.88;3.67;;;;;;;16.95;60.31;94125.66;4969821;28;20326;-67
2022/09/29 06:13:38;;;;;;;7.13;3.97;;;;;;;17.01;60.03;94124.81;4984392;28;20191;-66
2022/09/29 06:16:03;;;;;;;9.68;4.40;;;;;;;16.88;60.51;94109.75;4986647;28;20190;-66
2022/09/29 06:18:30;;;;;;;9.50;3.53;;;;;;;16.85;60.90;94114.69;4977001;28;20175;-66
2022/09/29 06:21:14;;;;;;;9.98;3.83;;;;;;;16.96;60.53;94103.38;4972387;28;20184;-67
2022/09/29 06:23:40;;;;;;;10.93;3.97;;;;;;;17.12;59.61;94100.22;4973288;28;20312;-66
2022/09/29 06:26:09;;;;;;;7.57;3.83;;;;;;;17.10;59.82;94107.56;4982600;28;20292;-67
2022/09/29 06:28:35;;;;;;;7.43;3.28;;;;;;;17.25;60.51;94103.81;4970416;28;20188;-69
2022/09/29 06:31:03;;;;;;;7.43;4.10;;;;;;;17.47;59.68;94105.06;4969255;28;20191;-68
2022/09/29 06:33:30;;;;;;;12.32;4.55;;;;;;;17.59;59.43;94111.31;4976588;28;20268;-67
2022/09/29 06:38:42;;;;;;;12.32;4.00;;;;;;;17.99;57.32;94100.38;4986237;28;20289;-67
2022/09/29 06:41:08;;;;;;;6.85;3.35;;;;;;;18.07;57.19;94107.25;4977879;28;20275;-66
2022/09/29 06:43:34;;;;;;;5.20;3.83;;;;;;;18.20;57.13;94116.91;4980851;28;20215;-67
2022/09/29 06:46:00;;;;;;;10.82;3.60;;;;;;;17.95;57.06;94123.09;4965218;28;20196;-66
2022/09/29 06:48:25;;;;;;;8.55;3.80;;;;;;;17.97;56.49;94113.06;4965687;28;20216;-66
2022/09/29 06:50:51;;;;;;;5.72;3.95;;;;;;;18.07;56.74;94112.56;4967970;28;20188;-67
2022/09/29 06:53:17;;;;;;;6.50;3.33;;;;;;;18.23;56.52;94122.63;4967219;28;20212;-66
2022/09/29 06:55:42;;;;;;;9.77;3.88;;;;;;;18.29;56.44;94116.41;4964839;28;20196;-66
2022/09/29 06:58:08;;;;;;;8.60;3.35;;;;;;;18.22;55.88;94125.50;4970688;28;20188;-67
2022/09/29 07:00:33;;;;;;;6.80;3.30;;;;;;;18.07;55.46;94125.88;4971401;28;20177;-67
2022/09/29 07:02:59;;;;;;;4.63;3.47;;;;;;;17.96;55.81;94130.06;4967406;28;20260;-66
2022/09/29 07:05:24;;;;;;;9.40;4.30;;;;;;;18.13;56.21;94142.81;4966930;28;20294;-68
2022/09/29 07:07:50;;;;;;;11.43;3.78;;;;;;;18.28;55.69;94141.41;4971034;28;20209;-68
2022/09/29 07:10:16;;;;;;;6.70;3.75;;;;;;;18.30;55.51;94138.53;4982629;28;20557;-66
2022/09/29 07:12:45;;;;;;;5.00;4.18;;;;;;;18.45;55.46;94157.63;4970048;28;20183;-66
2022/09/29 07:15:11;;;;;;;6.72;3.50;;;;;;;18.71;54.45;94147.69;4964493;28;20191;-66
2022/09/29 07:17:37;;;;;;;5.65;4.03;;;;;;;18.67;53.60;94125.22;4970118;28;20199;-66
2022/09/29 07:20:02;;;;;;;7.15;4.05;;;;;;;18.85;54.04;94127.09;4973899;28;20176;-65
2022/09/29 07:22:28;;;;;;;6.78;5.38;;;;;;;18.98;53.51;94126.06;4967793;28;20193;-67
2022/09/29 07:24:54;;;;;;;8.13;4.00;;;;;;;19.18;53.85;94126.63;4969692;28;20207;-68
2022/09/29 07:27:23;;;;;;;6.82;3.97;;;;;;;19.18;53.31;94124.78;4966806;28;20216;-68
2022/09/29 07:29:49;;;;;;;7.85;3.83;;;;;;;19.00;53.92;94126.66;4965455;28;20188;-68
2022/09/29 07:32:14;;;;;;;5.70;3.42;;;;;;;19.00;54.07;94122.16;4971464;28;20200;-68
2022/09/29 07:34:40;;;;;;;9.63;4.28;;;;;;;18.83;54.62;94118.50;4969203;28;20239;-67
2022/09/29 07:37:06;;;;;;;10.07;4.32;;;;;;;19.06;53.71;94125.75;4961953;28;20684;-68
2022/09/29 07:39:31;;;;;;;6.32;3.60;;;;;;;19.18;53.92;94134.63;4967692;28;20319;-67
2022/09/29 07:41:57;;;;;;;6.80;3.95;;;;;;;19.02;53.34;94135.25;4964583;28;20250;-69
2022/09/29 07:44:23;;;;;;;7.78;3.40;;;;;;;19.11;53.54;94124.06;4965359;28;20239;-69
2022/09/29 07:46:48;;;;;;;5.45;2.85;;;;;;;19.29;52.97;94128.50;4971985;28;20167;-68
2022/09/29 07:49:14;;;;;;;8.13;3.30;;;;;;;19.37;53.00;94128.19;4969071;28;20180;-67
2022/09/29 07:51:39;;;;;;;5.63;3.17;;;;;;;19.49;52.85;94130.91;4968181;28;20188;-69
2022/09/29 07:54:05;;;;;;;7.20;3.60;;;;;;;19.50;52.57;94137.03;4970362;28;20276;-69
2022/09/29 07:56:31;;;;;;;9.38;3.20;;;;;;;19.44;52.20;94149.44;4982370;28;20180;-69
2022/09/29 07:58:57;;;;;;;8.80;3.38;;;;;;;19.58;51.92;94153.50;4963730;28;20211;-68
2022/09/29 08:07:04;;;;;;;8.00;3.08;;;;;;;19.74;51.75;94160.06;4965345;28;20240;-67
2022/09/29 08:09:29;;;;;;;5.85;3.00;;;;;;;19.78;51.92;94155.91;4962409;28;20192;-67
2022/09/29 08:11:55;;;;;;;5.88;2.85;;;;;;;19.63;53.05;94166.16;4965898;28;20200;-67
2022/09/29 08:14:21;;;;;;;6.60;2.90;;;;;;;19.65;51.97;94172.09;4961464;28;20214;-68
2022/09/29 08:16:46;;;;;;;11.20;2.65;;;;;;;19.44;51.42;94173.44;4963045;28;20180;-66
2022/09/29 08:19:12;;;;;;;7.40;2.67;;;;;;;19.75;51.28;94175.06;4960704;28;20247;-67
2022/09/29 08:21:37;;;;;;;7.35;3.85;;;;;;;19.80;51.11;94175.16;4966092;28;20262;-67
2022/09/29 08:24:04;;;;;;;6.68;2.78;;;;;;;19.67;51.26;94172.69;4968183;28;20203;-67
2022/09/29 08:26:35;;;;;;;7.40;3.22;;;;;;;19.77;51.55;94174.81;4962808;28;20184;-67
2022/09/29 08:29:01;;;;;;;6.30;3.05;;;;;;;19.80;50.96;94177.00;4966958;28;20633;-67
2022/09/29 08:31:27;;;;;;;8.25;3.25;;;;;;;20.04;50.67;94177.84;4968089;28;20239;-67
2022/09/29 08:33:56;;;;;;;10.23;2.80;;;;;;;20.18;49.60;94181.94;4966585;28;20218;-66
2022/09/29 08:36:23;;;;;;;4.90;3.33;;;;;;;20.21;49.36;94181.47;4968033;28;20184;-68
2022/09/29 08:38:51;;;;;;;7.28;3.15;;;;;;;20.24;50.06;94172.19;4961420;28;20199;-67
2022/09/29 08:41:19;;;;;;;10.68;3.47;;;;;;;20.24;50.82;94183.69;4961209;28;20568;-68
2022/09/29 08:43:46;;;;;;;6.40;3.20;;;;;;;20.35;49.80;94175.91;4965356;28;20204;-67
2022/09/29 08:46:30;;;;;;;9.00;3.25;;;;;;;20.30;49.71;94178.47;4966410;28;20191;-67
2022/09/29 08:49:02;;;;;;;7.18;3.40;;;;;;;20.29;49.63;94172.31;4970684;28;20195;-65
2022/09/29 08:51:33;;;;;;;7.70;2.95;;;;;;;20.34;50.13;94171.59;4968313;28;20183;-66
2022/09/29 08:54:05;;;;;;;6.50;3.13;;;;;;;20.18;50.72;94187.28;4987392;28;20239;-66
2022/09/29 08:56:32;;;;;;;6.18;3.10;;;;;;;20.34;48.85;94180.44;4965863;28;20188;-65
2022/09/29 08:58:58;;;;;;;7.45;2.80;;;;;;;20.46;48.29;94170.56;4987714;28;20180;-65
2022/09/29 09:01:26;;;;;;;6.25;3.08;;;;;;;20.43;48.78;94175.56;4966073;28;20197;-65
2022/09/29 09:04:20;;;;;;;4.90;2.92;;;;;;;20.37;49.05;94171.97;4970779;28;20202;-65
2022/09/29 09:07:00;;;;;;;6.80;3.05;;;;;;;20.47;49.94;94179.38;4966807;28;20191;-65
2022/09/29 09:09:35;;;;;;;7.85;3.03;;;;;;;20.52;50.52;94178.69;4967170;28;20187;-65
2022/09/29 09:12:58;;;;;;;8.00;3.00;;;;;;;20.45;50.62;94176.16;4972808;28;20190;-66
2022/09/29 09:15:29;;;;;;;7.18;3.03;;;;;;;20.48;49.44;94176.47;4896086;29;20186;-66
2022/09/29 09:18:21;;;;;;;6.68;2.97;;;;;;;20.35;49.04;94175.91;4901289;29;20183;-66
2022/09/29 09:21:07;;;;;;;5.28;2.67;;;;;;;20.42;50.50;94172.09;4893226;29;20281;-68
2022/09/29 09:23:55;;;;;;;17.08;4.22;;;;;;;20.47;51.32;94169.53;4897886;29;20207;-67
2022/09/29 09:26:31;;;;;;;6.85;2.75;;;;;;;20.49;50.20;94166.59;4893078;29;20364;-64
2022/09/29 09:29:03;;;;;;;18.40;4.13;;;;;;;20.52;50.51;94176.00;4902419;29;20240;-65
2022/09/29 09:31:39;;;;;;;10.77;4.10;;;;;;;20.57;51.93;94174.28;4902133;29;20217;-64
2022/09/29 09:34:30;;;;;;;5.53;2.95;;;;;;;20.69;49.34;94183.13;4905452;29;20222;-67
2022/09/29 09:37:05;;;;;;;9.40;4.00;;;;;;;21.14;49.89;94168.22;4845447;29;20196;-66
2022/09/29 09:39:35;;;;;;;5.20;3.05;;;;;;;21.49;48.29;94162.78;4859743;29;20309;-66
2022/09/29 09:42:07;;;;;;;5.65;2.53;;;;;;;21.64;45.97;94164.09;4845685;29;20238;-66
2022/09/29 09:44:39;;;;;;;7.03;2.40;;;;;;;22.10;44.84;94154.13;4849027;29;20347;-65
2022/09/29 09:47:25;;;;;;;5.25;2.30;;;;;;;22.68;42.35;94156.34;4928689;29;20190;-67
2022/09/29 09:50:12;;;;;;;3.95;2.47;;;;;;;22.94;40.85;94154.00;4914824;29;20197;-67
2022/09/29 09:52:45;;;;;;;6.43;2.40;;;;;;;22.75;41.35;94171.44;4913655;29;20278;-66
2022/09/29 09:55:19;;;;;;;5.63;2.60;;;;;;;22.69;41.85;94175.91;4927162;29;20204;-65
2022/09/29 09:58:06;;;;;;;2.67;1.60;;;;;;;22.63;38.72;94153.59;4918305;29;20197;-65
2022/09/29 10:00:41;;;;;;;3.50;1.92;;;;;;;23.03;38.38;94154.41;4929172;29;20280;-65
2022/09/29 10:03:08;;;;;;;3.70;2.10;;;;;;;23.17;39.37;94152.94;4928987;29;20200;-65
2022/09/29 10:05:45;;;;;;;4.60;2.30;;;;;;;23.45;38.74;94159.16;4915416;29;20185;-65
2022/09/29 10:08:24;;;;;;;3.75;1.90;;;;;;;23.54;37.99;94166.50;4918919;29;20204;-65
2022/09/29 10:10:50;;;;;;;4.43;2.20;;;;;;;23.47;37.69;94157.03;4927998;29;20336;-65
2022/09/29 10:13:16;;;;;;;3.28;1.98;;;;;;;23.44;37.70;94169.09;4923152;28;20212;-65
2022/09/29 10:15:58;;;;;;;3.25;2.00;;;;;;;23.06;37.72;94156.56;4976836;28;20183;-64
2022/09/29 10:18:42;;;;;;;3.80;1.77;;;;;;;23.22;38.92;94153.00;4969275;28;20196;-65
2022/09/29 10:21:22;;;;;;;5.15;2.10;;;;;;;22.93;39.81;94149.69;4985010;28;20250;-65
2022/09/29 10:23:55;;;;;;;3.85;1.90;;;;;;;22.98;39.51;94148.97;4974164;28;20353;-65
2022/09/29 10:26:24;;;;;;;5.30;2.03;;;;;;;22.95;40.28;94150.25;4970132;28;20179;-65
2022/09/29 10:28:57;;;;;;;4.70;2.10;;;;;;;23.04;38.32;94158.69;4976652;28;20627;-65
2022/09/29 10:31:35;;;;;;;5.20;1.50;;;;;;;22.95;38.93;94150.25;4989184;28;20196;-66
2022/09/29 10:34:22;;;;;;;2.83;1.65;;;;;;;22.86;38.63;94168.66;4972358;28;20210;-68
2022/09/29 10:36:49;;;;;;;4.68;2.20;;;;;;;22.77;37.35;94166.63;4972484;28;20244;-66
2022/09/29 10:39:42;;;;;;;2.50;1.95;;;;;;;22.70;38.00;94168.72;4969772;28;20469;-68
2022/09/29 10:42:33;;;;;;;4.30;2.30;;;;;;;22.67;37.71;94160.09;4973058;28;20183;-68
2022/09/29 10:45:21;;;;;;;6.97;2.30;;;;;;;22.72;37.92;94167.41;4965228;28;20231;-67
2022/09/29 10:47:56;;;;;;;4.38;2.08;;;;;;;22.76;37.83;94170.38;4965254;28;20196;-67
2022/09/29 10:50:27;;;;;;;4.55;2.28;;;;;;;22.63;38.21;94160.84;4985968;28;20198;-67
2022/09/29 10:53:02;;;;;;;3.90;2.42;;;;;;;22.60;38.13;94158.66;4949448;28;20185;-67
2022/09/29 10:55:46;;;;;;;7.05;2.65;;;;;;;22.59;38.23;94157.03;4963796;28;20445;-68
2022/09/29 10:58:26;;;;;;;3.72;2.13;;;;;;;22.54;36.88;94156.97;4967040;28;20187;-66
2022/09/29 11:01:14;;;;;;;7.88;2.50;;;;;;;22.48;36.33;94152.59;4964467;28;20188;-67
2022/09/29 11:03:49;;;;;;;3.63;2.63;;;;;;;22.41;37.01;94156.25;4966043;28;20344;-66
2022/09/29 11:06:15;;;;;;;4.85;2.30;;;;;;;22.41;37.11;94140.19;4969032;28;20187;-67
2022/09/29 11:08:59;;;;;;;2.55;1.80;;;;;;;22.28;37.24;94143.19;4967587;28;20274;-65
2022/09/29 11:11:26;;;;;;;4.85;2.30;;;;;;;22.29;37.70;94136.78;4978442;28;20191;-65
2022/09/29 11:13:53;;;;;;;3.25;2.60;;;;;;;22.40;37.00;94130.53;4965973;28;20196;-66
2022/09/29 11:16:39;;;;;;;3.78;2.10;;;;;;;22.61;36.49;94133.47;4961859;28;20211;-67
2022/09/29 11:19:13;;;;;;;4.13;1.75;;;;;;;22.77;36.32;94140.66;4965415;28;20231;-67
2022/09/29 11:21:41;;;;;;;3.83;2.05;;;;;;;22.87;36.50;94138.09;4967529;28;20468;-67
2022/09/29 11:24:22;;;;;;;2.90;1.48;;;;;;;22.84;36.46;94135.91;4964828;28;20196;-67
2022/09/29 11:27:00;;;;;;;2.83;1.80;;;;;;;22.93;36.21;94130.91;4969434;28;20184;-67
2022/09/29 11:29:46;;;;;;;2.50;1.83;;;;;;;23.01;36.63;94127.03;4963906;28;20184;-65
2022/09/29 11:32:18;;;;;;;4.18;2.53;;;;;;;23.17;38.19;94130.69;4968278;28;20169;-67
2022/09/29 11:34:46;;;;;;;4.50;2.28;;;;;;;23.40;35.48;94124.25;4970380;28;20248;-66
2022/09/29 11:37:27;;;;;;;7.53;2.80;;;;;;;23.43;35.15;94121.84;4970878;28;20184;-67
2022/09/29 11:40:22;;;;;;;4.05;2.90;;;;;;;23.22;39.52;94125.38;4967294;28;20180;-65
2022/09/29 11:43:15;;;;;;;3.33;2.60;;;;;;;23.20;38.47;94125.66;4969488;28;20204;-67
2022/09/29 11:45:47;;;;;;;3.33;2.22;;;;;;;23.38;35.92;94119.13;4968210;28;20224;-67
2022/09/29 11:48:43;;;;;;;5.43;1.98;;;;;;;23.80;35.36;94123.03;4965079;28;20184;-67
2022/09/29 11:51:28;;;;;;;3.78;1.35;;;;;;;23.96;33.73;94124.75;4962057;28;20188;-65
2022/09/29 11:54:58;;;;;;;2.67;1.50;;;;;;;24.16;32.25;94132.16;4966517;28;20320;-64
2022/09/29 11:57:52;;;;;;;3.63;1.77;;;;;;;24.20;33.59;94123.31;4786505;29;20202;-65
2022/09/29 12:00:20;;;;;;;3.25;1.85;;;;;;;24.41;33.35;94118.09;4800072;29;20202;-66
2022/09/29 12:02:58;;;;;;;4.30;1.83;;;;;;;24.85;32.19;94112.41;4801466;29;20218;-64